Terminal Aerodrome Forecast
Issued by NWS Melbourne, FL

Home | Current Version | Previous Version | Text Only | Print | Product List | Glossary On
Versions: 1 2 3 4 5 6 7 8 9 10 11 12
508
FTUS42 KMLB 241120
TAFDAB
TAF
KDAB 241120Z 2412/2512 13003KT P6SM FEW035 SCT200
     FM241600 10008KT P6SM FEW045
     FM250100 12003KT P6SM SKC=

USA.gov is the U.S. government's official web portal to all federal, state and local government web resources and services.